Impacts TAF Board INFO
IDs:

KLAX - Los Angeles Intl, CA, US

Issued at 2338 UTC 05 Dec 2016
Updated at 0047 UTC 06 Dec 2016
Potential Impact None Slight Moderate High
Time2353Z 06/01Z 06/02Z 06/03Z 06/04Z 06/05Z 06/06Z 06/07Z 06/08Z 06/09Z 06/10Z 06/11Z 06/12Z 06/13Z
Type OBS PRVL PRVL PRVL PRVL PRVL PRVL PRVL PRVL PRVL PRVL PRVL PRVL PRVL
VIS 10 >6 >6 5 5 5 5 5 5 5 5 5 5 5
CIG -- 14 14 7 7 7 7 14 14 14 7 7 7 7
Cover FEW BKN BKN OVC OVC OVC OVC OVC OVC OVC OVC OVC OVC OVC
FltCat VFR MVFR MVFR IFR IFR IFR IFR MVFR MVFR MVFR IFR IFR IFR IFR
WX -- -- -- BR BR BR BR BR BR BR -DZ BR -DZ BR -DZ BR -DZ BR
WDir 260 270 270 280 280 280 280 VRB VRB VRB 90 90 90 90
WSpd 8 6 6 5 5 5 5 3 3 3 4 4 4 4
WGst -- -- -- -- -- -- -- -- -- -- -- -- -- --

Raw TAF
KLAX 052338Z 0600/0706 27009KT P6SM SCT020 SCT250
  FM060100 27006KT P6SM BKN014 BKN250
  FM060300 28005KT 5SM BR OVC007
  FM060700 VRB03KT 5SM BR SCT007 OVC014
  FM061000 09004KT 5SM -DZ BR BKN007 OVC017
  FM061400 10005KT 6SM -DZ BR SCT011 OVC022
  FM061730 VRB03KT P6SM FEW014 BKN027
  FM062000 25009KT P6SM SCT027
  FM070100 26007KT P6SM BKN014


Raw METAR
KLAX 052353Z 26008KT 10SM FEW020 FEW250 16/12 A2992 RMK AO2 SLP132 T01610117 10183 20150 55001 $
KLAX 052253Z 26008KT 10SM FEW020 FEW250 17/12 A2991 RMK AO2 SLP128 T01720122 $
KLAX 052153Z 27007KT 8SM FEW017 FEW090 SCT160 BKN200 17/12 A2992 RMK AO2 SLP130 T01720122 $

METAR Board
Radar Display
Forecast Discussion